Time;durP1;ratioP1;P1;durP2;ratioP2;P2;SDS_P1;SDS_P2;PMS_P1;PMS_P2;Temp;Humidity;BMP_temperature;BMP_pressure;BME280_temperature;BME280_humidity;BME280_pressure;Samples;Min_cycle;Max_cycle;Signal;HPM_P1;HPM_P2
2023/02/27 00:01:25;;;;;;;1.63;1.00;;;;;;;-3.28;100.00;96091.22;4983199;28;24993;-77
2023/02/27 00:03:51;;;;;;;2.22;1.00;;;;;;;-3.31;100.00;96087.84;4990933;28;24808;-77
2023/02/27 00:06:18;;;;;;;1.85;1.20;;;;;;;-3.36;100.00;96090.41;4990333;28;24448;-77
2023/02/27 00:08:44;;;;;;;3.15;0.88;;;;;;;-3.46;100.00;96088.75;4988071;28;24540;-77
2023/02/27 00:11:11;;;;;;;1.75;1.00;;;;;;;-3.47;100.00;96084.53;4990147;28;24440;-75
2023/02/27 00:13:39;;;;;;;2.67;1.27;;;;;;;-3.34;100.00;96093.75;4982685;28;24440;-76
2023/02/27 00:16:06;;;;;;;2.65;1.40;;;;;;;-3.43;100.00;96093.81;4988469;28;24445;-77
2023/02/27 00:18:32;;;;;;;2.35;1.40;;;;;;;-3.58;100.00;96094.69;4983980;28;24452;-77
2023/02/27 00:20:59;;;;;;;3.13;1.20;;;;;;;-3.49;100.00;96091.28;4984257;28;25060;-77
2023/02/27 00:23:26;;;;;;;2.00;1.10;;;;;;;-3.55;100.00;96097.22;4987744;28;24495;-77
2023/02/27 00:25:53;;;;;;;3.42;1.02;;;;;;;-3.45;100.00;96091.28;4986171;28;24437;-77
2023/02/27 00:28:20;;;;;;;2.03;0.90;;;;;;;-3.35;100.00;96086.19;4990204;28;24452;-77
2023/02/27 00:30:47;;;;;;;1.53;1.00;;;;;;;-3.44;100.00;96089.59;4989953;28;25071;-77
2023/02/27 00:33:14;;;;;;;2.47;1.45;;;;;;;-3.36;100.00;96087.03;4990049;28;24819;-76
2023/02/27 00:35:41;;;;;;;2.30;1.10;;;;;;;-3.54;100.00;96090.47;4990067;28;24835;-77
2023/02/27 00:38:07;;;;;;;2.20;1.20;;;;;;;-3.73;100.00;96087.13;4989522;28;24437;-76
2023/02/27 00:40:35;;;;;;;1.10;0.95;;;;;;;-3.84;100.00;96091.38;4986647;28;24436;-76
2023/02/27 00:43:01;;;;;;;3.15;1.38;;;;;;;-3.91;100.00;96082.94;4989408;28;24433;-77
2023/02/27 00:45:28;;;;;;;2.90;1.42;;;;;;;-3.66;100.00;96076.16;4986541;28;24432;-78
2023/02/27 00:47:56;;;;;;;4.93;1.27;;;;;;;-3.66;100.00;96081.22;4989933;28;24433;-77
2023/02/27 00:50:22;;;;;;;2.00;1.15;;;;;;;-3.70;100.00;96080.38;4985384;28;24429;-76
2023/02/27 00:52:49;;;;;;;1.80;1.02;;;;;;;-3.71;100.00;96080.38;4993844;28;24488;-76
2023/02/27 00:55:15;;;;;;;3.28;1.35;;;;;;;-3.60;100.00;96078.66;4990880;28;24448;-76
2023/02/27 00:57:42;;;;;;;2.33;1.33;;;;;;;-3.61;100.00;96078.66;4993532;28;24445;-77
2023/02/27 01:00:10;;;;;;;1.75;1.10;;;;;;;-3.66;100.00;96077.00;4990594;28;24452;-76
2023/02/27 01:02:37;;;;;;;3.72;1.52;;;;;;;-3.62;100.00;96079.53;4988297;28;24437;-77
2023/02/27 01:05:06;;;;;;;1.85;1.20;;;;;;;-3.62;100.00;96089.66;4991031;28;24441;-77
2023/02/27 01:07:32;;;;;;;2.55;1.48;;;;;;;-3.71;100.00;96077.84;4993369;28;24429;-77
2023/02/27 01:09:59;;;;;;;3.20;1.35;;;;;;;-3.76;100.00;96084.59;4992497;28;24433;-76
2023/02/27 01:12:26;;;;;;;2.65;1.50;;;;;;;-3.77;100.00;96085.47;4993244;28;24544;-77
2023/02/27 01:14:52;;;;;;;3.03;1.40;;;;;;;-3.94;100.00;96083.78;4991092;28;24448;-76
2023/02/27 01:17:19;;;;;;;1.95;1.13;;;;;;;-3.78;100.00;96081.22;4992736;28;24452;-76
2023/02/27 01:19:45;;;;;;;4.25;1.33;;;;;;;-3.67;100.00;96080.38;4992928;28;24447;-77
2023/02/27 01:22:13;;;;;;;5.95;1.40;;;;;;;-3.86;100.00;96077.88;4992626;28;24429;-77
2023/02/27 01:24:40;;;;;;;2.88;1.35;;;;;;;-3.83;100.00;96075.34;4992200;28;24459;-76
2023/02/27 01:27:06;;;;;;;4.60;1.52;;;;;;;-3.97;100.00;96076.22;4986627;28;24441;-77
2023/02/27 01:29:33;;;;;;;1.58;1.20;;;;;;;-3.64;100.00;96066.84;4992370;28;24994;-76
2023/02/27 01:31:59;;;;;;;3.63;1.30;;;;;;;-3.75;100.00;96071.94;4988129;28;24453;-76
2023/02/27 01:34:26;;;;;;;3.42;1.52;;;;;;;-3.71;100.00;96077.84;4985925;28;24436;-77
2023/02/27 01:36:52;;;;;;;2.88;1.33;;;;;;;-3.73;100.00;96071.94;4985132;28;24437;-77
2023/02/27 01:39:20;;;;;;;2.58;1.30;;;;;;;-3.77;100.00;96071.13;4992351;28;24521;-76
2023/02/27 01:41:47;;;;;;;3.03;1.30;;;;;;;-3.62;100.00;96065.16;4992061;28;24451;-77
2023/02/27 01:44:14;;;;;;;2.40;1.30;;;;;;;-3.64;100.00;96079.50;4992823;28;24978;-76
2023/02/27 01:46:41;;;;;;;3.42;1.55;;;;;;;-3.87;100.00;96071.13;4991125;28;24444;-76
2023/02/27 01:49:15;;;;;;;2.40;1.38;;;;;;;-4.03;100.00;96067.78;4989329;28;24433;-76
2023/02/27 01:51:44;;;;;;;2.25;1.40;;;;;;;-3.76;100.00;96067.72;4992694;28;24448;-77
2023/02/27 01:54:12;;;;;;;2.85;1.35;;;;;;;-3.86;100.00;96067.75;4990878;28;24792;-77
2023/02/27 01:56:42;;;;;;;4.57;1.63;;;;;;;-3.76;100.00;96074.47;4992545;28;24437;-76
2023/02/27 01:59:10;;;;;;;3.10;1.40;;;;;;;-3.93;100.00;96067.78;4988038;28;25005;-77
2023/02/27 02:01:38;;;;;;;3.40;1.48;;;;;;;-3.92;100.00;96064.41;4992225;28;24428;-76
2023/02/27 02:04:11;;;;;;;6.72;1.67;;;;;;;-3.94;100.00;96068.59;4989814;28;24795;-77
2023/02/27 02:06:40;;;;;;;2.70;1.42;;;;;;;-4.09;100.00;96070.31;4992344;28;24444;-77
2023/02/27 02:09:09;;;;;;;4.53;1.30;;;;;;;-3.95;100.00;96063.56;4991701;28;24433;-76
2023/02/27 02:11:37;;;;;;;5.75;1.27;;;;;;;-3.94;100.00;96063.53;4992115;28;24447;-76
2023/02/27 02:14:09;;;;;;;3.92;1.67;;;;;;;-3.82;100.00;96064.34;4991600;28;24859;-77
2023/02/27 02:16:53;;;;;;;3.17;1.42;;;;;;;-3.89;100.00;96063.56;4990645;28;24441;-77
2023/02/27 02:20:07;;;;;;;1.60;1.27;;;;;;;-3.92;100.00;96058.50;4991468;28;24852;-77
2023/02/27 02:23:16;;;;;;;4.32;1.70;;;;;;;-3.85;100.00;96059.34;4988022;28;24445;-77
2023/02/27 02:26:34;;;;;;;2.60;1.58;;;;;;;-4.14;100.00;96063.59;4986637;28;24428;-77
2023/02/27 02:29:23;;;;;;;2.20;1.30;;;;;;;-3.94;100.00;96062.69;4980412;28;24445;-77
2023/02/27 02:32:21;;;;;;;3.80;1.60;;;;;;;-4.00;100.00;96065.25;4989170;28;24865;-77
2023/02/27 02:35:09;;;;;;;3.22;1.25;;;;;;;-4.03;100.00;96067.78;4990328;28;24432;-76
2023/02/27 02:38:14;;;;;;;2.15;1.42;;;;;;;-4.04;100.00;96069.47;4984320;28;24441;-77
2023/02/27 02:40:47;;;;;;;2.60;1.33;;;;;;;-3.91;100.00;96071.13;4990764;28;24998;-75
2023/02/27 02:43:22;;;;;;;4.05;1.75;;;;;;;-3.84;100.00;96069.44;4991092;28;24533;-77
2023/02/27 02:45:55;;;;;;;2.95;1.40;;;;;;;-3.81;100.00;96069.44;4991609;28;24787;-76
2023/02/27 02:48:28;;;;;;;3.17;1.70;;;;;;;-4.04;100.00;96071.16;4986443;28;25006;-76
2023/02/27 02:51:03;;;;;;;2.90;1.60;;;;;;;-3.95;100.00;96061.88;4987916;28;24448;-77
2023/02/27 02:53:39;;;;;;;3.60;1.50;;;;;;;-3.96;100.00;96069.47;4984593;28;24436;-76
2023/02/27 02:56:10;;;;;;;4.13;1.60;;;;;;;-3.90;100.00;96065.22;4989936;28;24439;-76
2023/02/27 02:58:43;;;;;;;2.75;1.50;;;;;;;-3.88;100.00;96066.94;4986130;28;24450;-77
2023/02/27 03:01:15;;;;;;;2.83;1.42;;;;;;;-3.90;100.00;96066.91;4989078;28;25007;-76
2023/02/27 03:03:46;;;;;;;5.10;1.77;;;;;;;-3.85;100.00;96070.28;4985169;28;24971;-77
2023/02/27 03:06:19;;;;;;;3.88;1.80;;;;;;;-4.15;100.00;96074.56;4990424;28;24452;-77
2023/02/27 03:08:51;;;;;;;3.00;1.70;;;;;;;-4.13;100.00;96069.47;4986948;28;24442;-76
2023/02/27 03:11:18;;;;;;;2.67;1.33;;;;;;;-4.16;100.00;96060.19;4989850;28;24807;-77
2023/02/27 03:13:50;;;;;;;3.10;1.80;;;;;;;-4.29;100.00;96065.28;4990458;28;24813;-77
2023/02/27 03:16:23;;;;;;;2.38;1.42;;;;;;;-4.29;100.00;96067.81;4990082;28;24441;-77
2023/02/27 03:18:54;;;;;;;2.45;1.40;;;;;;;-4.16;100.00;96070.31;4987738;28;24445;-77
2023/02/27 03:21:27;;;;;;;3.17;1.50;;;;;;;-4.07;100.00;96069.47;4990693;28;24507;-77
2023/02/27 03:23:57;;;;;;;3.05;1.50;;;;;;;-4.23;100.00;96070.31;4985340;28;24444;-75
2023/02/27 03:26:31;;;;;;;2.38;1.58;;;;;;;-4.23;100.00;96072.84;4989919;28;25014;-75
2023/02/27 03:29:01;;;;;;;2.53;1.60;;;;;;;-4.32;100.00;96082.97;4989558;28;24444;-77
2023/02/27 03:31:33;;;;;;;7.78;1.67;;;;;;;-4.29;100.00;96077.94;4989113;28;24429;-76
2023/02/27 03:34:07;;;;;;;3.42;1.60;;;;;;;-4.11;100.00;96077.09;4981721;28;24440;-77
2023/02/27 03:36:43;;;;;;;2.60;1.52;;;;;;;-4.08;100.00;96077.88;4989957;28;24437;-77
2023/02/27 03:39:23;;;;;;;5.75;1.90;;;;;;;-4.27;100.00;96079.59;4985392;28;24436;-76
2023/02/27 03:41:53;;;;;;;2.08;1.45;;;;;;;-4.13;100.00;96084.66;4985163;28;24437;-76
2023/02/27 03:44:27;;;;;;;2.88;1.75;;;;;;;-4.04;100.00;96086.31;4989093;28;24456;-76
2023/02/27 03:46:54;;;;;;;2.50;1.77;;;;;;;-4.29;100.00;96086.34;4978226;28;24981;-76
2023/02/27 03:49:21;;;;;;;3.97;1.90;;;;;;;-4.27;100.00;96092.25;4986443;28;24451;-76
2023/02/27 03:51:47;;;;;;;3.13;1.70;;;;;;;-4.08;100.00;96084.66;4989667;28;24848;-76
2023/02/27 03:54:19;;;;;;;4.25;1.83;;;;;;;-4.15;100.00;96093.94;4987113;28;24432;-77
2023/02/27 03:56:51;;;;;;;2.17;1.50;;;;;;;-4.13;100.00;96099.84;4989870;28;24437;-77
2023/02/27 03:59:18;;;;;;;3.73;1.80;;;;;;;-4.13;100.00;96099.84;4925987;28;1737398;-77
2023/02/27 04:01:45;;;;;;;4.18;1.83;;;;;;;-4.21;100.00;96107.41;4988925;28;24640;-77
2023/02/27 04:04:13;;;;;;;3.33;1.85;;;;;;;-4.19;100.00;96113.34;4986682;28;24852;-76
2023/02/27 04:09:48;;;;;;;3.33;1.73;;;;;;;-4.33;100.00;96107.44;4982606;28;24440;-76
2023/02/27 04:12:29;;;;;;;3.08;1.50;;;;;;;-4.27;100.00;96102.34;4988651;28;24804;-76
2023/02/27 04:15:08;;;;;;;3.08;1.65;;;;;;;-4.31;100.00;96104.88;4981871;28;24522;-76
2023/02/27 04:17:44;;;;;;;6.47;1.83;;;;;;;-4.11;100.00;96099.84;4986643;28;24444;-76
2023/02/27 04:20:26;;;;;;;6.90;2.00;;;;;;;-4.14;100.00;96108.28;4990147;28;24437;-76
2023/02/27 04:22:59;;;;;;;6.43;1.90;;;;;;;-4.21;100.00;96109.13;4992659;28;24460;-76
2023/02/27 04:25:41;;;;;;;3.45;1.70;;;;;;;-4.27;100.00;96104.03;4993725;28;24440;-75
2023/02/27 04:28:16;;;;;;;3.47;2.00;;;;;;;-4.04;100.00;96104.91;4992644;28;24464;-76
2023/02/27 04:30:54;;;;;;;4.30;1.60;;;;;;;-4.23;100.00;96116.69;4988711;28;24437;-76
2023/02/27 04:33:29;;;;;;;2.28;1.55;;;;;;;-4.13;100.00;96110.78;4988809;28;24435;-76
2023/02/27 04:36:01;;;;;;;2.75;1.55;;;;;;;-4.18;100.00;96109.13;4994035;28;24425;-76
2023/02/27 04:38:34;;;;;;;2.50;1.67;;;;;;;-4.26;100.00;96113.34;4986896;28;24456;-76
2023/02/27 04:41:07;;;;;;;3.50;2.03;;;;;;;-4.17;100.00;96110.78;4985881;28;24437;-75
2023/02/27 04:43:37;;;;;;;3.80;1.73;;;;;;;-4.13;100.00;96109.94;4992825;28;24448;-76
2023/02/27 04:46:06;;;;;;;4.35;2.00;;;;;;;-4.09;100.00;96113.31;4988790;28;24440;-77
2023/02/27 04:48:38;;;;;;;3.23;1.90;;;;;;;-4.17;100.00;96110.78;4990435;28;24446;-76
2023/02/27 04:51:10;;;;;;;2.97;2.10;;;;;;;-4.29;100.00;96110.81;4985738;28;24429;-76
2023/02/27 04:53:45;;;;;;;4.53;1.73;;;;;;;-4.24;100.00;96109.09;4991095;28;24433;-76
2023/02/27 04:56:18;;;;;;;4.40;2.10;;;;;;;-4.36;100.00;96109.94;4993294;28;24437;-76
2023/02/27 04:58:49;;;;;;;5.97;1.92;;;;;;;-4.29;100.00;96104.06;4990456;28;25001;-76
2023/02/27 05:01:22;;;;;;;2.67;1.85;;;;;;;-4.36;100.00;96104.91;4990583;28;24847;-76
2023/02/27 05:03:53;;;;;;;3.88;2.00;;;;;;;-4.28;100.00;96117.53;4991352;28;24456;-76
2023/02/27 05:06:27;;;;;;;4.40;2.22;;;;;;;-4.41;100.00;96109.13;4993725;28;24505;-77
2023/02/27 05:08:58;;;;;;;4.75;1.85;;;;;;;-4.26;100.00;96101.53;4992756;28;24441;-77
2023/02/27 05:11:32;;;;;;;2.60;1.83;;;;;;;-4.32;100.00;96104.03;4987004;28;24487;-75
2023/02/27 05:14:04;;;;;;;4.10;2.20;;;;;;;-4.28;100.00;96110.78;4984306;28;24424;-75
2023/02/27 05:16:36;;;;;;;3.78;2.00;;;;;;;-4.50;100.00;96107.41;4986174;28;24495;-75
2023/02/27 05:19:03;;;;;;;3.00;1.77;;;;;;;-4.51;100.00;96117.53;4991981;28;24440;-76
2023/02/27 05:21:37;;;;;;;3.40;1.90;;;;;;;-4.60;100.00;96118.34;4990166;28;24444;-78
2023/02/27 05:24:13;;;;;;;5.88;1.80;;;;;;;-4.41;100.00;96116.69;4986600;28;24552;-75
2023/02/27 05:27:06;;;;;;;2.78;2.00;;;;;;;-4.27;100.00;96119.22;4992669;28;24433;-75
2023/02/27 05:29:41;;;;;;;3.53;2.10;;;;;;;-4.46;100.00;96116.66;4987422;28;24437;-76
2023/02/27 05:32:18;;;;;;;3.10;1.90;;;;;;;-4.43;100.00;96118.38;4993796;28;24425;-76
2023/02/27 05:34:52;;;;;;;3.28;1.95;;;;;;;-4.23;100.00;96124.25;4992121;28;24433;-77
2023/02/27 05:37:25;;;;;;;6.43;2.60;;;;;;;-4.35;100.00;96131.84;4985517;28;24464;-77
2023/02/27 05:39:52;;;;;;;5.65;2.55;;;;;;;-4.30;100.00;96131.84;4992845;28;24440;-77
2023/02/27 05:42:25;;;;;;;3.55;2.00;;;;;;;-4.23;100.00;96131.00;4992513;28;24441;-76
2023/02/27 05:44:57;;;;;;;3.40;2.20;;;;;;;-4.33;100.00;96132.72;4992075;28;25037;-76
2023/02/27 05:47:28;;;;;;;3.47;2.30;;;;;;;-4.56;100.00;96135.22;4992042;28;24436;-76
2023/02/27 05:50:01;;;;;;;3.27;2.40;;;;;;;-4.46;100.00;96136.06;4989614;28;24448;-77
2023/02/27 05:52:30;;;;;;;3.97;2.03;;;;;;;-4.37;100.00;96141.16;4986666;28;24433;-76
2023/02/27 05:55:02;;;;;;;4.22;2.17;;;;;;;-4.19;100.00;96138.63;4986656;28;24452;-76
2023/02/27 05:57:35;;;;;;;2.97;2.13;;;;;;;-4.27;100.00;96145.34;4984321;28;24449;-76
2023/02/27 06:00:10;;;;;;;3.83;2.22;;;;;;;-4.34;100.00;96140.28;4987073;28;24514;-76
2023/02/27 06:02:36;;;;;;;4.18;2.15;;;;;;;-4.38;100.00;96142.81;4986549;28;24436;-77
2023/02/27 06:05:04;;;;;;;4.05;2.45;;;;;;;-4.39;100.00;96142.81;4988192;28;24456;-76
2023/02/27 06:07:31;;;;;;;4.38;2.38;;;;;;;-4.36;100.00;96141.97;4983495;28;24453;-76
2023/02/27 06:09:58;;;;;;;3.33;2.22;;;;;;;-4.52;100.00;96148.72;4992375;28;24451;-76
2023/02/27 06:12:24;;;;;;;4.07;2.30;;;;;;;-4.45;100.00;96142.78;4991714;28;24494;-75
2023/02/27 06:14:52;;;;;;;4.18;2.53;;;;;;;-4.56;100.00;96154.56;4985264;28;24438;-76
2023/02/27 06:17:18;;;;;;;5.13;3.08;;;;;;;-4.66;100.00;96148.66;4988004;28;24441;-75
2023/02/27 06:19:45;;;;;;;4.22;2.35;;;;;;;-4.71;100.00;96150.31;4984398;28;24441;-76
2023/02/27 06:22:11;;;;;;;5.15;2.83;;;;;;;-4.44;100.00;96152.09;4987746;28;24454;-75
2023/02/27 06:24:38;;;;;;;4.07;2.10;;;;;;;-4.67;100.00;96157.94;4987949;28;25009;-76
2023/02/27 06:27:05;;;;;;;4.80;2.55;;;;;;;-4.34;100.00;96157.97;4990535;28;24444;-76
2023/02/27 06:29:31;;;;;;;4.38;2.45;;;;;;;-4.32;100.00;96159.69;4988139;28;24448;-80
2023/02/27 06:31:59;;;;;;;3.90;2.35;;;;;;;-4.31;100.00;96156.28;4979497;28;24429;-75
2023/02/27 06:34:25;;;;;;;4.00;2.25;;;;;;;-4.49;100.00;96167.22;4987706;28;24854;-76
2023/02/27 06:36:52;;;;;;;4.93;2.28;;;;;;;-4.60;100.00;96166.34;4992889;28;24448;-76
2023/02/27 06:39:18;;;;;;;4.03;2.33;;;;;;;-4.38;100.00;96167.25;4985942;28;24807;-76
2023/02/27 06:41:45;;;;;;;4.18;2.42;;;;;;;-4.55;100.00;96173.97;4991860;28;24441;-76
2023/02/27 06:44:11;;;;;;;5.20;2.47;;;;;;;-4.26;100.00;96162.22;4981218;28;24456;-76
2023/02/27 06:46:38;;;;;;;4.13;2.63;;;;;;;-4.27;100.00;96163.03;4988510;28;24983;-77
2023/02/27 06:49:06;;;;;;;4.47;2.20;;;;;;;-4.10;100.00;96168.13;4988937;28;24440;-79
2023/02/27 06:51:32;;;;;;;6.15;2.67;;;;;;;-4.16;100.00;96174.00;4987173;28;24445;-74
2023/02/27 06:53:59;;;;;;;6.07;2.50;;;;;;;-4.10;100.00;96167.28;4989827;28;24433;-77
2023/02/27 06:56:25;;;;;;;7.23;2.73;;;;;;;-3.99;100.00;96174.03;4992619;28;24440;-77
2023/02/27 06:58:52;;;;;;;5.82;2.72;;;;;;;-3.98;100.00;96177.41;4990894;28;24464;-77
2023/02/27 07:01:18;;;;;;;4.93;2.53;;;;;;;-3.96;100.00;96174.03;4994156;28;24452;-75
2023/02/27 07:03:45;;;;;;;3.60;2.38;;;;;;;-3.66;100.00;96188.38;4990050;28;25089;-74
2023/02/27 07:06:13;;;;;;;5.53;2.97;;;;;;;-3.61;100.00;96185.81;4983701;28;24798;-77
2023/02/27 07:08:39;;;;;;;4.60;2.88;;;;;;;-3.39;100.00;96188.34;4988645;28;24448;-79
2023/02/27 07:11:06;;;;;;;5.97;2.60;;;;;;;-3.36;100.00;96186.63;4991403;28;25051;-77
2023/02/27 07:13:32;;;;;;;5.45;2.78;;;;;;;-3.31;100.00;96184.94;4992318;28;24441;-78
2023/02/27 07:15:58;;;;;;;4.80;2.47;;;;;;;-3.11;100.00;96187.44;4997959;28;24458;-79
2023/02/27 07:18:25;;;;;;;3.42;2.30;;;;;;;-3.00;100.00;96190.78;4981743;28;24448;-78
2023/02/27 07:20:54;;;;;;;7.05;3.05;;;;;;;-2.99;100.00;96196.69;4984919;28;25037;-79
2023/02/27 07:23:22;;;;;;;5.72;2.40;;;;;;;-3.10;100.00;96193.34;4988155;28;24453;-78
2023/02/27 07:25:48;;;;;;;3.55;2.33;;;;;;;-3.06;100.00;96192.47;4983510;28;24995;-78
2023/02/27 07:28:15;;;;;;;5.35;2.50;;;;;;;-2.83;100.00;96200.84;4989341;28;24444;-78
2023/02/27 07:30:41;;;;;;;4.10;2.70;;;;;;;-2.76;100.00;96199.97;4991260;28;25001;-76
2023/02/27 07:33:08;;;;;;;5.80;2.83;;;;;;;-2.76;100.00;96199.97;4989236;28;24444;-77
2023/02/27 07:35:35;;;;;;;5.45;2.60;;;;;;;-2.59;100.00;96196.53;4981255;28;24465;-76
2023/02/27 07:38:01;;;;;;;3.80;2.72;;;;;;;-2.66;100.00;96200.78;4987304;28;24445;-77
2023/02/27 07:40:29;;;;;;;5.27;2.70;;;;;;;-2.53;100.00;96196.47;4987795;28;24437;-77
2023/02/27 07:42:56;;;;;;;5.00;2.78;;;;;;;-2.50;100.00;96193.94;4983511;28;24441;-77
2023/02/27 07:45:22;;;;;;;4.30;2.53;;;;;;;-2.52;100.00;96193.97;4982996;28;24460;-77
2023/02/27 07:47:49;;;;;;;5.13;2.50;;;;;;;-2.32;100.00;96201.44;4983599;28;24464;-75
2023/02/27 07:50:16;;;;;;;4.05;2.60;;;;;;;-2.41;100.00;96200.66;4988817;28;24535;-77
2023/02/27 07:52:44;;;;;;;4.90;2.58;;;;;;;-2.33;100.00;96209.91;4989808;28;24517;-76
2023/02/27 07:55:12;;;;;;;5.72;2.90;;;;;;;-2.51;100.00;96205.78;4985676;28;24523;-76
2023/02/27 07:57:40;;;;;;;4.93;2.72;;;;;;;-2.09;100.00;96198.75;4983463;28;24816;-77
2023/02/27 08:00:09;;;;;;;3.55;2.40;;;;;;;-2.06;100.00;96211.44;4987430;28;24433;-77
2023/02/27 08:02:35;;;;;;;5.55;2.90;;;;;;;-1.75;100.00;96217.13;4990342;28;24523;-77
2023/02/27 08:05:02;;;;;;;4.78;2.60;;;;;;;-2.25;100.00;96200.56;4980808;28;24461;-77
2023/02/27 08:07:28;;;;;;;3.65;2.40;;;;;;;-1.95;100.00;96206.28;4979126;28;24471;-77
2023/02/27 08:09:55;;;;;;;4.70;2.78;;;;;;;-1.72;100.00;96208.66;4989383;28;24445;-76
2023/02/27 08:12:22;;;;;;;4.25;2.47;;;;;;;-1.66;100.00;96206.06;4989179;28;24440;-77
2023/02/27 08:14:49;;;;;;;4.20;2.78;;;;;;;-1.49;100.00;96221.16;4984770;28;24523;-76
2023/02/27 08:17:16;;;;;;;4.90;2.37;;;;;;;-1.42;100.00;96219.41;4986186;28;24444;-76
2023/02/27 08:19:42;;;;;;;3.97;2.78;;;;;;;-1.48;100.00;96218.63;4988897;28;24440;-76
2023/02/27 08:22:10;;;;;;;4.97;2.58;;;;;;;-1.44;100.00;96216.06;4988486;28;24444;-76
2023/02/27 08:24:37;;;;;;;8.50;3.20;;;;;;;-1.28;100.00;96222.69;4986751;28;24491;-77
2023/02/27 08:27:04;;;;;;;5.85;2.75;;;;;;;-1.29;100.00;96221.00;4989084;28;24447;-76
2023/02/27 08:29:31;;;;;;;5.68;2.50;;;;;;;-1.40;100.00;96217.72;4989070;28;24444;-77
2023/02/27 08:31:59;;;;;;;5.03;2.72;;;;;;;-1.32;100.00;96224.41;4990517;28;24452;-77
2023/02/27 08:34:26;;;;;;;4.30;2.60;;;;;;;-1.26;100.00;96218.41;4980574;28;24994;-77
2023/02/27 08:36:53;;;;;;;4.22;2.75;;;;;;;-1.13;100.00;96217.44;4977632;28;24441;-77
2023/02/27 08:39:22;;;;;;;5.47;2.47;;;;;;;-1.09;100.00;96211.47;4989093;28;24453;-75
2023/02/27 08:41:49;;;;;;;4.90;2.70;;;;;;;-1.05;100.00;96223.28;4989659;28;24433;-75
2023/02/27 08:44:16;;;;;;;3.92;2.42;;;;;;;-0.88;100.00;96218.03;4982258;28;24457;-76
2023/02/27 08:46:42;;;;;;;5.43;2.97;;;;;;;-0.73;100.00;96217.84;4989828;28;24986;-76
2023/02/27 08:49:10;;;;;;;6.43;2.63;;;;;;;-0.63;100.00;96223.69;4985323;28;24991;-76
2023/02/27 08:51:36;;;;;;;4.10;2.25;;;;;;;-0.73;99.86;96234.81;4989882;28;24824;-79
2023/02/27 08:54:03;;;;;;;4.82;2.60;;;;;;;-0.55;100.00;96226.97;4987749;28;24448;-77
2023/02/27 08:56:32;;;;;;;6.13;2.70;;;;;;;-0.44;99.74;96221.75;4985184;28;24512;-77
2023/02/27 08:58:58;;;;;;;3.95;2.45;;;;;;;-0.19;100.00;96229.06;4983478;28;24441;-77
2023/02/27 09:01:26;;;;;;;3.78;2.25;;;;;;;-0.52;100.00;96224.41;4985314;28;24437;-76
2023/02/27 09:03:53;;;;;;;4.60;2.40;;;;;;;-0.32;100.00;96223.31;4979218;28;24963;-75
2023/02/27 09:06:21;;;;;;;3.03;1.95;;;;;;;-0.49;98.96;96231.97;4988024;28;24480;-76
2023/02/27 09:08:47;;;;;;;5.35;2.35;;;;;;;-0.26;96.23;96236.81;4992107;28;24441;-76
2023/02/27 09:11:14;;;;;;;5.13;2.53;;;;;;;-0.20;99.64;96240.13;4989816;28;24444;-76
2023/02/27 09:13:40;;;;;;;3.00;2.30;;;;;;;0.01;100.00;96236.44;4984048;28;24452;-76
2023/02/27 09:16:07;;;;;;;4.38;2.25;;;;;;;0.07;95.84;96237.19;4994631;28;24433;-77
2023/02/27 09:18:33;;;;;;;3.85;2.33;;;;;;;0.32;100.00;96232.56;4989880;28;24449;-75
2023/02/27 09:21:00;;;;;;;3.30;2.20;;;;;;;0.10;90.28;96242.22;4988362;28;24452;-77
2023/02/27 09:23:28;;;;;;;3.30;1.88;;;;;;;-0.11;93.57;96239.97;4992932;28;24515;-76
2023/02/27 09:25:54;;;;;;;4.40;2.05;;;;;;;0.21;97.07;96242.91;4992686;28;25134;-77
2023/02/27 09:28:21;;;;;;;6.20;2.30;;;;;;;0.24;92.57;96242.03;4992717;28;24498;-76
2023/02/27 09:30:47;;;;;;;3.15;2.30;;;;;;;0.30;95.92;96241.97;4992852;28;24441;-76
2023/02/27 09:33:14;;;;;;;3.42;2.17;;;;;;;0.43;95.78;96240.88;4994518;28;24432;-79
2023/02/27 09:35:41;;;;;;;3.78;2.40;;;;;;;0.34;90.25;96243.59;4999157;28;24515;-78
2023/02/27 09:38:08;;;;;;;3.30;2.20;;;;;;;0.44;86.89;96244.28;4997936;28;24452;-78
2023/02/27 09:40:40;;;;;;;5.00;2.40;;;;;;;0.57;93.50;96238.13;4998646;28;24432;-78
2023/02/27 09:43:11;;;;;;;4.43;2.45;;;;;;;0.76;88.15;96245.47;4995411;28;24436;-78
2023/02/27 09:45:38;;;;;;;5.93;2.10;;;;;;;0.93;86.12;96240.94;4987894;28;24451;-78
2023/02/27 09:48:12;;;;;;;5.07;2.30;;;;;;;0.87;86.25;96243.59;4993219;28;24549;-78
2023/02/27 09:50:42;;;;;;;3.25;2.03;;;;;;;1.06;87.74;96249.19;4990439;28;24431;-78
2023/02/27 09:53:13;;;;;;;3.50;2.17;;;;;;;0.72;85.81;96234.50;4991398;28;24434;-78
2023/02/27 09:55:44;;;;;;;2.83;1.95;;;;;;;0.86;81.82;96247.84;4999046;28;24428;-77
2023/02/27 09:58:28;;;;;;;3.25;2.00;;;;;;;1.02;88.31;96247.56;4982936;28;24449;-75
2023/02/27 10:01:02;;;;;;;4.22;2.42;;;;;;;1.14;87.00;96244.78;4991573;28;24990;-76
2023/02/27 10:03:44;;;;;;;6.13;2.25;;;;;;;1.29;86.64;96246.22;4986793;28;24440;-76
2023/02/27 10:06:24;;;;;;;4.15;2.00;;;;;;;1.28;80.92;96257.31;4989539;28;24445;-75
2023/02/27 10:09:02;;;;;;;3.90;2.33;;;;;;;1.04;80.06;96256.91;4991332;28;24440;-76
2023/02/27 10:11:35;;;;;;;3.93;2.40;;;;;;;1.14;87.25;96243.09;4984786;28;24436;-76
2023/02/27 10:14:09;;;;;;;4.72;2.28;;;;;;;1.35;79.74;96254.59;4988150;28;24433;-75
2023/02/27 10:16:37;;;;;;;3.78;1.95;;;;;;;1.38;84.51;96259.66;4991563;28;24440;-75
2023/02/27 10:19:11;;;;;;;6.88;1.90;;;;;;;1.53;81.11;96253.41;4988616;28;25013;-76
2023/02/27 10:21:40;;;;;;;2.60;1.92;;;;;;;1.59;78.18;96252.44;4990481;28;24433;-76
2023/02/27 10:24:14;;;;;;;3.43;2.03;;;;;;;1.52;80.41;96249.19;4992722;28;24577;-75
2023/02/27 10:26:45;;;;;;;3.60;2.00;;;;;;;1.53;85.36;96260.25;4991027;28;25135;-75
2023/02/27 10:29:17;;;;;;;8.70;2.43;;;;;;;1.49;84.58;96268.84;4991818;28;24452;-77
2023/02/27 10:31:47;;;;;;;3.22;2.05;;;;;;;1.35;83.17;96263.97;4989240;28;24429;-77
2023/02/27 10:34:15;;;;;;;4.15;1.92;;;;;;;1.27;83.00;96255.63;4990756;28;24856;-77
2023/02/27 10:36:43;;;;;;;2.58;2.03;;;;;;;1.53;77.96;96262.78;4988626;28;24433;-76
2023/02/27 10:39:15;;;;;;;3.08;1.95;;;;;;;1.21;79.00;96266.78;4982605;28;24445;-75
2023/02/27 10:41:46;;;;;;;3.20;2.00;;;;;;;1.60;83.22;96272.03;4991081;28;24433;-74
2023/02/27 10:44:16;;;;;;;4.50;1.80;;;;;;;1.70;76.52;96269.22;4991027;28;25005;-74
2023/02/27 10:46:43;;;;;;;3.25;1.75;;;;;;;1.52;75.01;96269.63;4988727;28;24456;-74
2023/02/27 10:49:15;;;;;;;3.75;2.00;;;;;;;1.33;70.35;96279.31;4990888;28;24451;-74
2023/02/27 10:51:43;;;;;;;2.50;1.60;;;;;;;1.55;69.46;96272.09;4991362;28;24455;-75
2023/02/27 10:54:31;;;;;;;3.85;1.88;;;;;;;1.45;65.93;96268.88;4988639;28;24439;-74
2023/02/27 10:57:02;;;;;;;3.83;2.15;;;;;;;1.63;70.17;96275.34;4984684;28;24882;-75
2023/02/27 10:59:31;;;;;;;2.60;1.90;;;;;;;1.73;67.58;96270.03;4983464;28;24495;-74
2023/02/27 11:02:00;;;;;;;5.38;2.22;;;;;;;2.10;71.30;96270.13;4991185;28;24433;-74
2023/02/27 11:04:31;;;;;;;3.88;2.13;;;;;;;2.04;65.25;96263.44;4981714;28;24440;-74
2023/02/27 11:06:59;;;;;;;6.70;1.70;;;;;;;1.79;65.90;96273.31;4987198;28;24475;-74
2023/02/27 11:09:30;;;;;;;4.18;1.70;;;;;;;1.75;62.95;96261.50;4986949;28;24446;-74
2023/02/27 11:12:11;;;;;;;2.22;1.67;;;;;;;2.07;69.85;96277.84;4988776;28;24441;-75
2023/02/27 11:14:48;;;;;;;4.57;1.73;;;;;;;1.80;66.80;96274.16;4984108;28;24530;-74
2023/02/27 11:17:23;;;;;;;2.63;1.60;;;;;;;1.80;68.35;96257.13;4986851;28;25006;-74
2023/02/27 11:19:49;;;;;;;2.50;1.67;;;;;;;1.52;71.07;96263.63;4990447;28;24443;-75
2023/02/27 11:22:18;;;;;;;5.22;2.08;;;;;;;1.52;70.41;96264.50;4987733;28;24437;-74
2023/02/27 11:24:45;;;;;;;3.03;1.88;;;;;;;1.51;67.61;96262.81;4990202;28;24840;-74
2023/02/27 11:27:25;;;;;;;2.60;1.80;;;;;;;1.25;69.54;96259.91;4983788;28;24478;-74
2023/02/27 11:29:59;;;;;;;4.50;1.73;;;;;;;1.70;68.40;96260.72;4989131;28;24492;-74
2023/02/27 11:32:30;;;;;;;3.95;2.00;;;;;;;1.80;67.20;96261.41;4985153;28;25029;-74
2023/02/27 11:34:56;;;;;;;3.80;2.00;;;;;;;1.80;67.82;96257.13;4989805;28;24437;-76
2023/02/27 11:37:30;;;;;;;2.60;1.80;;;;;;;1.56;67.18;96255.06;4989516;28;25101;-76
2023/02/27 11:40:03;;;;;;;4.55;1.75;;;;;;;1.78;69.29;96253.78;4990519;28;24819;-75
2023/02/27 11:42:34;;;;;;;3.20;1.67;;;;;;;2.04;68.68;96255.78;4988335;28;24448;-75
2023/02/27 11:45:04;;;;;;;3.95;1.88;;;;;;;1.85;61.94;96246.81;4988897;28;24976;-75
2023/02/27 11:47:33;;;;;;;3.33;1.60;;;;;;;1.84;67.35;96245.97;4990049;28;24799;-73